Terminal Aerodrome Forecast
Issued by NWS Omaha/Valley, NE

Home | Current Version | Previous Version | Graphics & Text | Print | Product List | Glossary On
Versions: 1 2 3 4 5 6 7 8 9 10 11 12 13 14 15 16 17 18 19 20 21 22 23 24 25 26 27 28 29 30 31
000
FTUS43 KOAX 282329
TAFOFK
TAF
KOFK 282329Z 2900/2924 14011KT P6SM SCT025 BKN100
      TEMPO 2907/2910 6SM -SHRA OVC025
     FM291100 22010KT P6SM OVC040
     FM291600 32014KT P6SM BKN040
      TEMPO 2918/2921 -SHRA=

USA.gov is the U.S. government's official web portal to all federal, state and local government web resources and services.